createdAt,value
2024-02-03T00:00:18.145Z,100821.91
2024-02-03T00:02:46.127Z,100828.00
2024-02-03T00:05:14.166Z,100820.13
2024-02-03T00:07:42.338Z,100813.16
2024-02-03T00:10:11.935Z,100826.25
2024-02-03T00:12:40.005Z,100825.38
2024-02-03T00:15:08.427Z,100823.69
2024-02-03T00:17:36.390Z,100824.53
2024-02-03T00:20:04.587Z,100814.09
2024-02-03T00:22:32.918Z,100817.56
2024-02-03T00:25:02.129Z,100805.31
2024-02-03T00:27:31.688Z,100803.63
2024-02-03T00:29:59.643Z,100801.78
2024-02-03T00:32:33.331Z,100792.22
2024-02-03T00:35:01.434Z,100792.19
2024-02-03T00:37:29.457Z,100787.81
2024-02-03T00:39:58.312Z,100784.38
2024-02-03T00:42:26.667Z,100788.72
2024-02-03T00:44:56.094Z,100790.53
2024-02-03T00:47:24.118Z,100780.91
2024-02-03T00:49:52.458Z,100777.31
2024-02-03T00:52:20.573Z,100781.63
2024-02-03T00:54:48.725Z,100787.66
2024-02-03T00:57:16.840Z,100782.09
2024-02-03T00:59:44.812Z,100780.16
2024-02-03T01:02:14.167Z,100782.66
2024-02-03T01:04:43.608Z,100780.88
2024-02-03T01:07:11.694Z,100766.75
2024-02-03T01:09:39.638Z,100756.22
2024-02-03T01:12:08.169Z,100761.50
2024-02-03T01:14:36.105Z,100759.75
2024-02-03T01:17:05.927Z,100749.25
2024-02-03T01:19:35.389Z,100758.03
2024-02-03T01:22:03.516Z,100751.75
2024-02-03T01:24:31.546Z,100762.31
2024-02-03T01:26:59.588Z,100763.22
2024-02-03T01:29:29.599Z,100776.34
2024-02-03T01:31:57.824Z,100778.88
2024-02-03T01:34:26.142Z,100767.59
2024-02-03T01:36:55.542Z,100785.22
2024-02-03T01:39:23.665Z,100772.88
2024-02-03T01:41:51.672Z,100770.34
2024-02-03T01:44:19.630Z,100761.59
2024-02-03T01:46:48.112Z,100760.72
2024-02-03T01:49:16.263Z,100772.16
2024-02-03T01:51:44.444Z,100761.72
2024-02-03T01:54:13.842Z,100766.09
2024-02-03T01:56:44.838Z,100744.19
2024-02-03T01:59:13.260Z,100745.13
2024-02-03T02:01:41.283Z,100732.84
2024-02-03T02:04:09.476Z,100737.34
2024-02-03T02:06:37.570Z,100735.66
2024-02-03T02:09:04.568Z,100728.59
2024-02-03T02:11:33.872Z,100719.03
2024-02-03T02:14:01.774Z,100711.16
2024-02-03T02:16:30.513Z,100711.16
2024-02-03T02:18:58.541Z,100700.63
2024-02-03T02:21:27.932Z,100710.38
2024-02-03T02:23:58.310Z,100706.00
2024-02-03T02:26:26.469Z,100697.16
2024-02-03T02:28:54.400Z,100700.03
2024-02-03T02:31:22.414Z,100696.41
2024-02-03T02:33:50.516Z,100683.41
2024-02-03T02:36:18.628Z,100694.84
2024-02-03T02:38:47.925Z,100692.22
2024-02-03T02:41:15.892Z,100691.25
2024-02-03T02:43:43.800Z,100692.19
2024-02-03T02:46:12.184Z,100695.66
2024-02-03T02:48:40.207Z,100693.97
2024-02-03T02:51:09.884Z,100699.22
2024-02-03T02:53:37.927Z,100694.06
2024-02-03T02:56:07.896Z,100697.50
2024-02-03T02:58:35.896Z,100700.97
2024-02-03T03:01:05.452Z,100701.88
2024-02-03T03:03:33.963Z,100697.56
2024-02-03T03:06:02.014Z,100699.28
2024-02-03T03:08:29.978Z,100693.25
2024-02-03T03:10:57.962Z,100692.31
2024-02-03T03:13:27.319Z,100692.25
2024-02-03T03:15:55.563Z,100669.53
2024-02-03T03:18:23.625Z,100680.91
2024-02-03T03:20:51.725Z,100673.94
2024-02-03T03:23:19.776Z,100673.06
2024-02-03T03:25:47.829Z,100666.06
2024-02-03T03:28:15.795Z,100672.28
2024-02-03T03:30:45.277Z,100667.88
2024-02-03T03:33:13.385Z,100665.19
2024-02-03T03:35:41.462Z,100672.19
2024-02-03T03:38:09.554Z,100671.41
2024-02-03T03:40:37.908Z,100671.38
2024-02-03T03:43:06.552Z,100666.16
2024-02-03T03:45:35.691Z,100667.81
2024-02-03T03:48:05.297Z,100672.22
2024-02-03T03:50:33.339Z,100671.31
2024-02-03T03:53:01.345Z,100675.78
2024-02-03T03:55:29.323Z,100687.06
2024-02-03T03:57:57.462Z,100688.00
2024-02-03T04:00:25.586Z,100672.25
2024-02-03T04:02:53.630Z,100673.09
2024-02-03T04:05:22.006Z,100666.06
2024-02-03T04:07:50.200Z,100658.19
2024-02-03T04:10:18.138Z,100657.28
2024-02-03T04:12:46.929Z,100651.19
2024-02-03T04:15:15.189Z,100664.16
2024-02-03T04:17:43.183Z,100656.22
2024-02-03T04:20:11.897Z,100658.78
2024-02-03T04:22:41.255Z,100660.41
2024-02-03T04:25:09.970Z,100654.88
2024-02-03T04:27:38.002Z,100657.31
2024-02-03T04:30:21.858Z,100651.06
2024-02-03T04:32:52.711Z,100648.38
2024-02-03T04:35:20.896Z,100658.63
2024-02-03T04:37:50.415Z,100648.03
2024-02-03T04:40:18.669Z,100642.56
2024-02-03T04:42:46.768Z,100647.75
2024-02-03T04:45:14.889Z,100643.34
2024-02-03T04:47:42.924Z,100642.25
2024-02-03T04:50:11.813Z,100645.72
2024-02-03T04:52:40.513Z,100649.31
2024-02-03T04:55:10.310Z,100644.78
2024-02-03T04:57:38.581Z,100637.56
2024-02-03T05:00:09.744Z,100646.28
2024-02-03T05:02:38.255Z,100646.25
2024-02-03T05:05:09.939Z,100643.56
2024-02-03T05:07:37.938Z,100648.72
2024-02-03T05:10:06.912Z,100643.50
2024-02-03T05:12:36.271Z,100645.94
2024-02-03T05:15:05.929Z,100644.88
2024-02-03T05:17:34.464Z,100635.88
2024-02-03T05:20:02.604Z,100626.22
2024-02-03T05:22:30.672Z,100615.63
2024-02-03T05:24:58.693Z,100622.66
2024-02-03T05:27:26.678Z,100627.97
2024-02-03T05:29:56.017Z,100627.25
2024-02-03T05:32:23.962Z,100620.97
2024-02-03T05:34:51.949Z,100621.00
2024-02-03T05:37:19.958Z,100633.41
2024-02-03T05:39:48.080Z,100638.78
2024-02-03T05:42:16.138Z,100635.19
2024-02-03T05:44:44.169Z,100636.22
2024-02-03T05:47:13.694Z,100646.69
2024-02-03T05:49:42.767Z,100650.34
2024-02-03T05:52:10.752Z,100662.47
2024-02-03T05:54:38.744Z,100663.38
2024-02-03T05:57:06.970Z,100663.44
2024-02-03T05:59:38.775Z,100667.84
2024-02-03T06:02:15.198Z,100658.25
2024-02-03T06:04:43.580Z,100652.97
2024-02-03T06:07:11.695Z,100661.88
2024-02-03T06:09:39.915Z,100651.38
2024-02-03T06:12:08.608Z,100668.72
2024-02-03T06:14:36.668Z,100665.25
2024-02-03T06:17:04.916Z,100672.25
2024-02-03T06:19:34.354Z,100683.81
2024-02-03T06:22:02.426Z,100686.50
2024-02-03T06:24:30.447Z,100690.00
2024-02-03T06:26:58.484Z,100692.41
2024-02-03T06:29:26.464Z,100701.31
2024-02-03T06:31:54.443Z,100701.41
2024-02-03T06:34:22.635Z,100712.78
2024-02-03T06:36:52.442Z,100719.81
2024-02-03T06:39:20.472Z,100719.78
2024-02-03T06:41:48.400Z,100721.59
2024-02-03T06:44:16.294Z,100721.56
2024-02-03T06:46:44.216Z,100723.25
2024-02-03T06:49:12.227Z,100733.88
2024-02-03T06:51:40.489Z,100732.84
2024-02-03T06:54:09.889Z,100733.84
2024-02-03T06:56:37.814Z,100739.06
2024-02-03T06:59:05.735Z,100728.53
2024-02-03T07:01:33.679Z,100731.16
2024-02-03T07:04:01.746Z,100738.16
2024-02-03T07:06:29.935Z,100726.53
2024-02-03T07:08:57.964Z,100738.84
2024-02-03T07:11:27.208Z,100730.81
2024-02-03T07:13:55.231Z,100731.66
2024-02-03T07:16:23.205Z,100727.19
2024-02-03T07:18:51.188Z,100729.88
2024-02-03T07:21:19.206Z,100721.97
2024-02-03T07:23:47.162Z,100721.19
2024-02-03T07:26:15.129Z,100724.72
2024-02-03T07:28:44.531Z,100721.97
2024-02-03T07:31:12.582Z,100718.53
2024-02-03T07:33:40.608Z,100722.91
2024-02-03T07:36:09.311Z,100728.97
2024-02-03T07:38:37.285Z,100721.81
2024-02-03T07:41:05.730Z,100717.97
2024-02-03T07:43:33.644Z,100712.78
2024-02-03T07:46:03.029Z,100720.72
2024-02-03T07:48:31.208Z,100713.69
2024-02-03T07:50:59.205Z,100716.84
2024-02-03T07:53:27.165Z,100719.41
2024-02-03T07:55:55.078Z,100722.00
2024-02-03T07:58:23.023Z,100722.00
2024-02-03T08:00:51.449Z,100719.34
2024-02-03T08:03:20.838Z,100723.50
2024-02-03T08:05:48.802Z,100726.13
2024-02-03T08:08:16.763Z,100725.16
2024-02-03T08:10:44.899Z,100739.97
2024-02-03T08:13:12.828Z,100757.38
2024-02-03T08:15:40.928Z,100750.78
2024-02-03T08:18:09.162Z,100749.91
2024-02-03T08:20:40.241Z,100758.56
2024-02-03T08:23:08.177Z,100757.66
2024-02-03T08:25:36.072Z,100766.50
2024-02-03T08:28:04.428Z,100756.97
2024-02-03T08:30:32.602Z,100762.88
2024-02-03T08:33:00.739Z,100751.50
2024-02-03T08:35:28.846Z,100762.78
2024-02-03T08:37:58.175Z,100752.22
2024-02-03T08:40:26.182Z,100752.03
2024-02-03T08:42:54.240Z,100762.72
2024-02-03T08:45:22.285Z,100755.53
2024-02-03T08:47:50.409Z,100750.22
2024-02-03T08:50:18.525Z,100757.47
2024-02-03T08:52:47.244Z,100750.44
2024-02-03T08:55:17.216Z,100753.78
2024-02-03T08:57:45.378Z,100766.09
2024-02-03T09:00:14.582Z,100758.13
2024-02-03T09:02:42.709Z,100774.72
2024-02-03T09:05:11.016Z,100768.66
2024-02-03T09:07:39.047Z,100771.16
2024-02-03T09:10:07.777Z,100759.03
2024-02-03T09:12:37.090Z,100767.75
2024-02-03T09:15:07.034Z,100765.16
2024-02-03T09:17:35.072Z,100767.81
2024-02-03T09:20:03.339Z,100774.56
2024-02-03T09:22:31.442Z,100762.41
2024-02-03T09:24:59.480Z,100777.47
2024-02-03T09:27:27.463Z,100778.38
2024-02-03T09:29:57.002Z,100767.72
2024-02-03T09:32:30.252Z,100771.97
2024-02-03T09:34:58.699Z,100785.19
2024-02-03T09:39:58.107Z,100795.69
2024-02-03T09:42:26.636Z,100787.75
2024-02-03T09:44:56.400Z,100795.75
2024-02-03T09:47:24.752Z,100795.75
2024-02-03T09:49:52.843Z,100783.38
2024-02-03T09:52:21.586Z,100792.94
2024-02-03T09:54:50.155Z,100788.47
2024-02-03T09:57:18.292Z,100800.09
2024-02-03T09:59:51.862Z,100789.47
2024-02-03T10:02:23.574Z,100791.19
2024-02-03T10:04:51.621Z,100798.91
2024-02-03T10:07:20.260Z,100800.75
2024-02-03T10:12:22.255Z,100804.38
2024-02-03T10:15:01.374Z,100786.63
2024-02-03T10:17:30.839Z,100776.94
2024-02-03T10:19:59.210Z,100777.91
2024-02-03T10:22:28.140Z,100784.06
2024-02-03T10:24:59.896Z,100774.13
2024-02-03T10:27:27.907Z,100772.38
2024-02-03T10:29:56.756Z,100772.31
2024-02-03T10:32:25.029Z,100773.16
2024-02-03T10:34:54.864Z,100772.13
2024-02-03T10:37:22.965Z,100759.78
2024-02-03T10:39:51.437Z,100761.31
2024-02-03T10:42:22.984Z,100764.75
2024-02-03T10:44:50.794Z,100765.47
2024-02-03T10:47:22.952Z,100761.84
2024-02-03T10:49:53.290Z,100751.47
2024-02-03T10:52:24.971Z,100743.41
2024-02-03T10:54:57.225Z,100760.88
2024-02-03T10:57:27.490Z,100755.47
2024-02-03T11:00:04.673Z,100747.78
2024-02-03T11:02:32.676Z,100747.66
2024-02-03T11:05:02.615Z,100754.59
2024-02-03T11:07:33.085Z,100748.50
2024-02-03T11:10:06.143Z,100743.22
2024-02-03T11:12:35.484Z,100745.66
2024-02-03T11:15:03.651Z,100739.19
2024-02-03T11:17:33.044Z,100731.19
2024-02-03T11:20:04.898Z,100734.00
2024-02-03T11:22:34.538Z,100726.97
2024-02-03T11:25:03.968Z,100733.03
2024-02-03T11:27:31.979Z,100724.13
2024-02-03T11:30:07.206Z,100721.06
2024-02-03T11:32:35.225Z,100733.53
2024-02-03T11:35:05.471Z,100727.53
2024-02-03T11:37:35.026Z,100724.06
2024-02-03T11:40:11.550Z,100717.88
2024-02-03T11:42:40.369Z,100733.03
2024-02-03T11:45:15.233Z,100705.56
2024-02-03T11:47:43.905Z,100704.84
2024-02-03T11:50:11.930Z,100700.63
2024-02-03T11:52:47.714Z,100702.22
2024-02-03T11:55:15.920Z,100696.19
2024-02-03T11:57:44.217Z,100705.91
2024-02-03T12:00:14.573Z,100696.19
2024-02-03T12:02:42.964Z,100692.75
2024-02-03T12:05:14.289Z,100684.06
2024-02-03T12:07:43.808Z,100669.16
2024-02-03T12:10:14.279Z,100689.41
2024-02-03T12:12:42.583Z,100678.59
2024-02-03T12:15:12.217Z,100674.06
2024-02-03T12:17:41.012Z,100676.75
2024-02-03T12:20:23.957Z,100682.09
2024-02-03T12:22:57.033Z,100678.41
2024-02-03T12:25:27.444Z,100688.00
2024-02-03T12:27:55.986Z,100675.75
2024-02-03T12:30:24.617Z,100674.81
2024-02-03T12:32:52.741Z,100673.94
2024-02-03T12:35:20.637Z,100670.09
2024-02-03T12:37:48.633Z,100647.81
2024-02-03T12:40:16.706Z,100672.41
2024-02-03T12:42:46.104Z,100673.97
2024-02-03T12:45:14.127Z,100664.94
2024-02-03T12:47:43.581Z,100653.47
2024-02-03T12:50:12.522Z,100660.47
2024-02-03T12:52:40.726Z,100668.28
2024-02-03T12:55:09.284Z,100660.34
2024-02-03T12:57:37.348Z,100666.66
2024-02-03T13:00:08.706Z,100662.03
2024-02-03T13:02:56.007Z,100663.81
2024-02-03T13:05:24.542Z,100669.09
2024-02-03T13:07:53.775Z,100667.38
2024-02-03T13:10:21.773Z,100668.91
2024-02-03T13:12:49.888Z,100653.94
2024-02-03T13:15:19.585Z,100661.03
2024-02-03T13:17:48.612Z,100655.03
2024-02-03T13:20:16.731Z,100651.50
2024-02-03T13:22:44.886Z,100663.91
2024-02-03T13:25:12.921Z,100657.63
2024-02-03T13:27:41.124Z,100665.03
2024-02-03T13:30:16.063Z,100657.47
2024-02-03T13:32:45.650Z,100652.22
2024-02-03T13:35:13.950Z,100658.44
2024-02-03T13:37:41.996Z,100652.22
2024-02-03T13:40:10.867Z,100645.38
2024-02-03T13:42:38.896Z,100651.63
2024-02-03T13:45:07.985Z,100659.44
2024-02-03T13:47:35.892Z,100651.63
2024-02-03T13:50:05.768Z,100639.38
2024-02-03T13:52:36.961Z,100637.50
2024-02-03T13:55:05.576Z,100617.50
2024-02-03T13:57:36.344Z,100624.53
2024-02-03T14:00:07.516Z,100629.75
2024-02-03T14:02:38.521Z,100627.44
2024-02-03T14:05:08.816Z,100637.47
2024-02-03T14:07:36.832Z,100637.41
2024-02-03T14:10:05.301Z,100647.75
2024-02-03T14:12:33.399Z,100646.16
2024-02-03T14:15:01.829Z,100641.00
2024-02-03T14:17:29.740Z,100639.34
2024-02-03T14:19:57.735Z,100656.56
2024-02-03T14:22:27.108Z,100654.75
2024-02-03T14:24:55.156Z,100670.41
2024-02-03T14:27:23.645Z,100658.97
2024-02-03T14:29:51.671Z,100674.84
2024-02-03T14:32:20.517Z,100659.66
2024-02-03T14:34:48.711Z,100670.69
2024-02-03T14:37:16.805Z,100675.72
2024-02-03T14:39:46.336Z,100671.44
2024-02-03T14:42:14.401Z,100687.47
2024-02-03T14:44:42.368Z,100690.09
2024-02-03T14:47:10.419Z,100694.63
2024-02-03T14:49:38.679Z,100696.63
2024-02-03T14:52:07.487Z,100701.31
2024-02-03T14:54:35.545Z,100703.84
2024-02-03T14:57:06.363Z,100700.91
2024-02-03T14:59:34.629Z,100696.66
2024-02-03T15:02:03.109Z,100705.28
2024-02-03T15:04:31.126Z,100709.31
2024-02-03T15:06:59.468Z,100710.56
2024-02-03T15:09:27.900Z,100713.22
2024-02-03T15:11:55.965Z,100707.94
2024-02-03T15:14:25.372Z,100703.00
2024-02-03T15:16:53.307Z,100697.50
2024-02-03T15:19:21.521Z,100693.34
2024-02-03T15:21:49.841Z,100695.78
2024-02-03T15:24:18.568Z,100699.19
2024-02-03T15:26:46.581Z,100699.28
2024-02-03T15:29:14.815Z,100698.38
2024-02-03T15:31:44.263Z,100695.69
2024-02-03T15:34:12.343Z,100688.78
2024-02-03T15:36:40.494Z,100690.78
2024-02-03T15:39:09.496Z,100687.38
2024-02-03T15:41:37.497Z,100695.97
2024-02-03T15:44:05.708Z,100701.25
2024-02-03T15:46:40.630Z,100693.44
2024-02-03T15:49:14.648Z,100695.16
2024-02-03T15:51:42.867Z,100694.69
2024-02-03T15:54:11.007Z,100699.00
2024-02-03T15:56:40.784Z,100698.88
2024-02-03T15:59:09.582Z,100696.28
2024-02-03T16:01:38.405Z,100701.72
2024-02-03T16:04:06.646Z,100697.38
2024-02-03T16:06:36.333Z,100703.41
2024-02-03T16:09:04.560Z,100708.75
2024-02-03T16:11:32.597Z,100712.59
2024-02-03T16:14:02.050Z,100720.69
2024-02-03T16:16:31.014Z,100720.75
2024-02-03T16:18:59.441Z,100721.78
2024-02-03T16:21:27.508Z,100713.91
2024-02-03T16:23:56.901Z,100719.06
2024-02-03T16:26:25.714Z,100715.59
2024-02-03T16:28:53.872Z,100714.66
2024-02-03T16:31:21.955Z,100715.97
2024-02-03T16:33:50.256Z,100719.66
2024-02-03T16:36:18.379Z,100713.81
2024-02-03T16:38:46.405Z,100718.78
2024-02-03T16:41:15.783Z,100721.47
2024-02-03T16:43:43.848Z,100727.81
2024-02-03T16:46:11.785Z,100725.28
2024-02-03T16:48:39.768Z,100727.66
2024-02-03T16:51:08.275Z,100722.56
2024-02-03T16:53:36.232Z,100731.44
2024-02-03T16:56:04.631Z,100735.91
2024-02-03T16:58:33.936Z,100727.06
2024-02-03T17:01:02.055Z,100726.38
2024-02-03T17:03:30.227Z,100727.16
2024-02-03T17:05:58.328Z,100729.13
2024-02-03T17:08:28.712Z,100730.00
2024-02-03T17:10:56.796Z,100717.69
2024-02-03T17:13:26.557Z,100716.47
2024-02-03T17:15:57.499Z,100720.06
2024-02-03T17:18:26.371Z,100717.31
2024-02-03T17:20:54.566Z,100718.19
2024-02-03T17:23:22.534Z,100716.47
2024-02-03T17:25:52.894Z,100725.38
2024-02-03T17:28:21.012Z,100725.34
2024-02-03T17:30:49.064Z,100729.03
2024-02-03T17:33:18.694Z,100731.72
2024-02-03T17:35:46.719Z,100726.31
2024-02-03T17:38:14.781Z,100724.63
2024-02-03T17:40:41.705Z,100733.47
2024-02-03T17:43:09.738Z,100733.53
2024-02-03T17:45:37.838Z,100729.16
2024-02-03T17:48:06.085Z,100732.66
2024-02-03T17:50:36.432Z,100731.72
2024-02-03T17:53:11.205Z,100728.28
2024-02-03T17:55:39.417Z,100734.47
2024-02-03T17:58:08.973Z,100727.94
2024-02-03T18:00:37.172Z,100729.91
2024-02-03T18:03:05.847Z,100731.66
2024-02-03T18:05:35.914Z,100727.34
2024-02-03T18:08:04.137Z,100727.28
2024-02-03T18:10:32.145Z,100722.19
2024-02-03T18:13:00.270Z,100725.44
2024-02-03T18:15:28.373Z,100728.97
2024-02-03T18:17:56.500Z,100736.16
2024-02-03T18:20:24.548Z,100739.81
2024-02-03T18:22:54.064Z,100744.09
2024-02-03T18:25:23.577Z,100754.81
2024-02-03T18:27:51.948Z,100750.31
2024-02-03T18:30:19.995Z,100736.22
2024-02-03T18:32:50.938Z,100741.59
2024-02-03T18:35:19.215Z,100740.75
2024-02-03T18:37:47.185Z,100734.75
2024-02-03T18:40:16.558Z,100734.75
2024-02-03T18:42:45.064Z,100734.75
2024-02-03T18:45:16.216Z,100727.78
2024-02-03T18:47:44.292Z,100731.28
2024-02-03T18:50:12.412Z,100731.97
2024-02-03T18:52:40.507Z,100736.34
2024-02-03T18:55:09.056Z,100739.84
2024-02-03T18:57:38.740Z,100733.75
2024-02-03T19:00:08.487Z,100740.03
2024-02-03T19:02:36.771Z,100735.47
2024-02-03T19:05:05.096Z,100742.50
2024-02-03T19:07:33.254Z,100735.31
2024-02-03T19:10:01.858Z,100745.13
2024-02-03T19:12:31.002Z,100744.25
2024-02-03T19:15:00.531Z,100737.78
2024-02-03T19:17:39.173Z,100742.31
2024-02-03T19:20:11.242Z,100738.06
2024-02-03T19:22:39.490Z,100734.00
2024-02-03T19:25:08.970Z,100737.41
2024-02-03T19:27:37.018Z,100739.25
2024-02-03T19:30:07.540Z,100744.53
2024-02-03T19:32:35.829Z,100740.13
2024-02-03T19:35:05.173Z,100748.47
2024-02-03T19:37:33.313Z,100749.50
2024-02-03T19:40:01.956Z,100739.84
2024-02-03T19:42:30.509Z,100745.19
2024-02-03T19:45:00.322Z,100742.50
2024-02-03T19:47:30.096Z,100737.03
2024-02-03T19:50:00.074Z,100741.59
2024-02-03T19:52:28.507Z,100744.34
2024-02-03T19:54:56.668Z,100736.44
2024-02-03T19:57:24.700Z,100733.84
2024-02-03T19:59:52.922Z,100745.22
2024-02-03T20:02:21.008Z,100738.06
2024-02-03T20:04:50.410Z,100741.72
2024-02-03T20:07:18.839Z,100748.94
2024-02-03T20:09:47.218Z,100746.31
2024-02-03T20:12:15.772Z,100757.69
2024-02-03T20:14:44.106Z,100754.22
2024-02-03T20:17:12.159Z,100749.88
2024-02-03T20:19:41.469Z,100756.97
2024-02-03T20:22:12.876Z,100750.69
2024-02-03T20:24:41.055Z,100753.00
2024-02-03T20:27:09.014Z,100750.50
2024-02-03T20:29:37.432Z,100754.84
2024-02-03T20:32:05.742Z,100750.25
2024-02-03T20:34:34.068Z,100755.59
2024-02-03T20:37:02.520Z,100748.72
2024-02-03T20:39:31.902Z,100751.47
2024-02-03T20:41:59.895Z,100744.00
2024-02-03T20:44:27.855Z,100748.38
2024-02-03T20:46:55.925Z,100744.88
2024-02-03T20:49:26.746Z,100740.38
2024-02-03T20:51:55.072Z,100736.75
2024-02-03T20:54:23.337Z,100744.00
2024-02-03T20:56:52.662Z,100735.91
2024-02-03T20:59:20.740Z,100728.25
2024-02-03T21:01:48.918Z,100730.97
2024-02-03T21:04:17.413Z,100733.31
2024-02-03T21:06:46.441Z,100723.72
2024-02-03T21:09:15.966Z,100726.50
2024-02-03T21:11:47.087Z,100733.63
2024-02-03T21:14:17.061Z,100732.16
2024-02-03T21:16:45.586Z,100730.59
2024-02-03T21:19:13.718Z,100730.63
2024-02-03T21:21:43.249Z,100714.84
2024-02-03T21:24:11.521Z,100721.69
2024-02-03T21:26:39.539Z,100727.59
2024-02-03T21:29:07.623Z,100726.84
2024-02-03T21:31:36.981Z,100718.81
2024-02-03T21:34:05.326Z,100722.28
2024-02-03T21:36:33.608Z,100730.06
2024-02-03T21:39:01.570Z,100716.00
2024-02-03T21:41:29.598Z,100721.50
2024-02-03T21:43:58.912Z,100725.16
2024-02-03T21:46:27.037Z,100714.75
2024-02-03T21:48:56.554Z,100706.88
2024-02-03T21:51:26.709Z,100711.28
2024-02-03T21:53:54.672Z,100710.41
2024-02-03T21:56:30.080Z,100716.63
2024-02-03T21:58:58.507Z,100715.09
2024-02-03T22:01:29.606Z,100706.34
2024-02-03T22:04:01.969Z,100703.03
2024-02-03T22:06:30.067Z,100719.75
2024-02-03T22:08:59.717Z,100726.06
2024-02-03T22:11:27.901Z,100727.81
2024-02-03T22:13:55.966Z,100733.03
2024-02-03T22:16:23.989Z,100732.16
2024-02-03T22:19:02.503Z,100734.69
2024-02-03T22:21:39.957Z,100745.16
2024-02-03T22:24:08.215Z,100723.16
2024-02-03T22:26:36.210Z,100720.25
2024-02-03T22:29:04.182Z,100720.94
2024-02-03T22:31:32.970Z,100725.25
2024-02-03T22:34:02.434Z,100730.72
2024-02-03T22:36:30.613Z,100735.91
2024-02-03T22:39:02.802Z,100733.03
2024-02-03T22:41:31.117Z,100717.13
2024-02-03T22:43:59.166Z,100703.94
2024-02-03T22:46:27.185Z,100709.25
2024-02-03T22:48:55.699Z,100707.59
2024-02-03T22:51:28.933Z,100702.44
2024-02-03T22:53:57.089Z,100697.97
2024-02-03T22:56:27.726Z,100700.91
2024-02-03T22:58:55.957Z,100699.22
2024-02-03T23:01:24.440Z,100697.66
2024-02-03T23:03:53.550Z,100703.91
2024-02-03T23:06:21.839Z,100703.78
2024-02-03T23:08:51.270Z,100708.00
2024-02-03T23:11:19.486Z,100698.97
2024-02-03T23:13:47.584Z,100697.28
2024-02-03T23:16:15.896Z,100692.06
2024-02-03T23:18:44.223Z,100682.22
2024-02-03T23:21:12.605Z,100685.78
2024-02-03T23:23:40.770Z,100690.16
2024-02-03T23:26:10.826Z,100686.56
2024-02-03T23:28:39.278Z,100684.88
2024-02-03T23:31:07.563Z,100686.94
2024-02-03T23:33:38.053Z,100679.78
2024-02-03T23:36:06.996Z,100676.28
2024-02-03T23:38:35.038Z,100670.22
2024-02-03T23:41:03.095Z,100665.91
2024-02-03T23:43:32.861Z,100663.22
2024-02-03T23:46:00.964Z,100664.97
2024-02-03T23:48:29.320Z,100652.38
2024-02-03T23:50:57.466Z,100653.25
2024-02-03T23:53:26.965Z,100646.16
2024-02-03T23:55:55.164Z,100647.84
2024-02-03T23:58:23.691Z,100642.53
